sensor_id;sensor_type;location;lat;lon;timestamp;P1;durP1;ratioP1;P2;durP2;ratioP2
3847;SDS011;1939;48.720;9.166;2023-12-07T00:01:00;13.10;;;6.47;;
3847;SDS011;1939;48.720;9.166;2023-12-07T00:03:26;10.60;;;5.97;;
3847;SDS011;1939;48.720;9.166;2023-12-07T00:05:51;14.87;;;7.90;;
3847;SDS011;1939;48.720;9.166;2023-12-07T00:08:16;13.27;;;7.17;;
3847;SDS011;1939;48.720;9.166;2023-12-07T00:10:41;12.07;;;7.10;;
3847;SDS011;1939;48.720;9.166;2023-12-07T00:13:07;12.27;;;7.03;;
3847;SDS011;1939;48.720;9.166;2023-12-07T00:15:32;14.50;;;7.57;;
3847;SDS011;1939;48.720;9.166;2023-12-07T00:17:57;18.50;;;7.80;;
3847;SDS011;1939;48.720;9.166;2023-12-07T00:20:22;15.50;;;7.87;;
3847;SDS011;1939;48.720;9.166;2023-12-07T00:22:47;13.73;;;7.57;;
3847;SDS011;1939;48.720;9.166;2023-12-07T00:25:13;10.63;;;6.07;;
3847;SDS011;1939;48.720;9.166;2023-12-07T00:27:38;10.33;;;6.30;;
3847;SDS011;1939;48.720;9.166;2023-12-07T00:30:03;19.30;;;7.60;;
3847;SDS011;1939;48.720;9.166;2023-12-07T00:32:29;10.60;;;6.63;;
3847;SDS011;1939;48.720;9.166;2023-12-07T00:34:54;13.30;;;6.30;;
3847;SDS011;1939;48.720;9.166;2023-12-07T00:37:20;11.73;;;6.90;;
3847;SDS011;1939;48.720;9.166;2023-12-07T00:39:45;11.90;;;6.80;;
3847;SDS011;1939;48.720;9.166;2023-12-07T00:42:10;9.97;;;5.83;;
3847;SDS011;1939;48.720;9.166;2023-12-07T00:44:39;14.00;;;6.83;;
3847;SDS011;1939;48.720;9.166;2023-12-07T00:47:04;11.20;;;6.80;;
3847;SDS011;1939;48.720;9.166;2023-12-07T00:49:30;9.40;;;6.20;;
3847;SDS011;1939;48.720;9.166;2023-12-07T00:51:55;15.00;;;8.07;;
3847;SDS011;1939;48.720;9.166;2023-12-07T00:54:20;11.87;;;6.73;;
3847;SDS011;1939;48.720;9.166;2023-12-07T00:56:45;15.97;;;7.50;;
3847;SDS011;1939;48.720;9.166;2023-12-07T00:59:10;10.77;;;6.80;;
3847;SDS011;1939;48.720;9.166;2023-12-07T01:01:36;10.53;;;6.87;;
3847;SDS011;1939;48.720;9.166;2023-12-07T01:04:03;18.17;;;6.13;;
3847;SDS011;1939;48.720;9.166;2023-12-07T01:06:28;11.73;;;7.63;;
3847;SDS011;1939;48.720;9.166;2023-12-07T01:08:54;11.60;;;7.30;;
3847;SDS011;1939;48.720;9.166;2023-12-07T01:11:19;12.40;;;6.40;;
3847;SDS011;1939;48.720;9.166;2023-12-07T01:13:45;12.77;;;6.80;;
3847;SDS011;1939;48.720;9.166;2023-12-07T01:16:10;12.23;;;6.87;;
3847;SDS011;1939;48.720;9.166;2023-12-07T01:18:35;12.90;;;6.90;;
3847;SDS011;1939;48.720;9.166;2023-12-07T01:21:00;11.73;;;6.53;;
3847;SDS011;1939;48.720;9.166;2023-12-07T01:23:26;9.87;;;6.40;;
3847;SDS011;1939;48.720;9.166;2023-12-07T01:25:51;14.53;;;6.50;;
3847;SDS011;1939;48.720;9.166;2023-12-07T01:28:16;8.63;;;5.80;;
3847;SDS011;1939;48.720;9.166;2023-12-07T01:30:41;13.57;;;6.97;;
3847;SDS011;1939;48.720;9.166;2023-12-07T01:33:07;12.67;;;6.40;;
3847;SDS011;1939;48.720;9.166;2023-12-07T01:35:32;12.80;;;6.40;;
3847;SDS011;1939;48.720;9.166;2023-12-07T01:37:57;11.57;;;6.50;;
3847;SDS011;1939;48.720;9.166;2023-12-07T01:40:22;12.20;;;6.27;;
3847;SDS011;1939;48.720;9.166;2023-12-07T01:42:51;12.40;;;6.70;;
3847;SDS011;1939;48.720;9.166;2023-12-07T01:45:16;15.13;;;6.50;;
3847;SDS011;1939;48.720;9.166;2023-12-07T01:47:41;10.20;;;5.80;;
3847;SDS011;1939;48.720;9.166;2023-12-07T01:50:07;10.83;;;7.73;;
3847;SDS011;1939;48.720;9.166;2023-12-07T01:52:34;12.63;;;6.30;;
3847;SDS011;1939;48.720;9.166;2023-12-07T01:55:00;13.97;;;6.63;;
3847;SDS011;1939;48.720;9.166;2023-12-07T01:57:26;13.17;;;6.73;;
3847;SDS011;1939;48.720;9.166;2023-12-07T01:59:52;13.73;;;6.50;;
3847;SDS011;1939;48.720;9.166;2023-12-07T02:02:17;14.77;;;6.90;;
3847;SDS011;1939;48.720;9.166;2023-12-07T02:04:42;11.90;;;6.33;;
3847;SDS011;1939;48.720;9.166;2023-12-07T02:07:07;15.40;;;7.57;;
3847;SDS011;1939;48.720;9.166;2023-12-07T02:09:33;8.90;;;4.80;;
3847;SDS011;1939;48.720;9.166;2023-12-07T02:11:58;12.10;;;5.77;;
3847;SDS011;1939;48.720;9.166;2023-12-07T02:14:23;11.37;;;6.30;;
3847;SDS011;1939;48.720;9.166;2023-12-07T02:16:50;11.80;;;6.97;;
3847;SDS011;1939;48.720;9.166;2023-12-07T02:21:47;11.93;;;5.40;;
3847;SDS011;1939;48.720;9.166;2023-12-07T02:24:13;12.57;;;6.80;;
3847;SDS011;1939;48.720;9.166;2023-12-07T02:26:40;7.63;;;5.57;;
3847;SDS011;1939;48.720;9.166;2023-12-07T02:29:06;12.77;;;6.90;;
3847;SDS011;1939;48.720;9.166;2023-12-07T02:31:31;12.77;;;6.70;;
3847;SDS011;1939;48.720;9.166;2023-12-07T02:33:56;10.90;;;6.70;;
3847;SDS011;1939;48.720;9.166;2023-12-07T02:36:22;12.77;;;7.20;;
3847;SDS011;1939;48.720;9.166;2023-12-07T02:38:49;14.03;;;5.80;;
3847;SDS011;1939;48.720;9.166;2023-12-07T02:41:15;13.57;;;6.40;;
3847;SDS011;1939;48.720;9.166;2023-12-07T02:43:41;11.00;;;7.13;;
3847;SDS011;1939;48.720;9.166;2023-12-07T02:46:06;10.97;;;7.43;;
3847;SDS011;1939;48.720;9.166;2023-12-07T02:48:32;12.40;;;6.77;;
3847;SDS011;1939;48.720;9.166;2023-12-07T02:50:57;11.27;;;6.67;;
3847;SDS011;1939;48.720;9.166;2023-12-07T02:53:22;16.00;;;6.73;;
3847;SDS011;1939;48.720;9.166;2023-12-07T02:55:47;14.30;;;7.90;;
3847;SDS011;1939;48.720;9.166;2023-12-07T02:58:13;24.70;;;7.93;;
3847;SDS011;1939;48.720;9.166;2023-12-07T03:00:38;11.53;;;6.80;;
3847;SDS011;1939;48.720;9.166;2023-12-07T03:03:03;11.47;;;7.03;;
3847;SDS011;1939;48.720;9.166;2023-12-07T03:05:28;14.23;;;7.70;;
3847;SDS011;1939;48.720;9.166;2023-12-07T03:07:54;17.63;;;8.10;;
3847;SDS011;1939;48.720;9.166;2023-12-07T03:10:19;13.03;;;6.97;;
3847;SDS011;1939;48.720;9.166;2023-12-07T03:12:44;12.53;;;6.70;;
3847;SDS011;1939;48.720;9.166;2023-12-07T03:15:09;13.57;;;7.23;;
3847;SDS011;1939;48.720;9.166;2023-12-07T03:17:35;14.83;;;6.40;;
3847;SDS011;1939;48.720;9.166;2023-12-07T03:20:00;14.60;;;7.10;;
3847;SDS011;1939;48.720;9.166;2023-12-07T03:22:26;11.90;;;7.00;;
3847;SDS011;1939;48.720;9.166;2023-12-07T03:24:51;16.43;;;7.60;;
3847;SDS011;1939;48.720;9.166;2023-12-07T03:27:17;15.07;;;6.53;;
3847;SDS011;1939;48.720;9.166;2023-12-07T03:29:42;14.57;;;7.60;;
3847;SDS011;1939;48.720;9.166;2023-12-07T03:32:07;15.00;;;7.93;;
3847;SDS011;1939;48.720;9.166;2023-12-07T03:34:33;16.90;;;7.77;;
3847;SDS011;1939;48.720;9.166;2023-12-07T03:36:58;11.67;;;7.23;;
3847;SDS011;1939;48.720;9.166;2023-12-07T03:39:23;12.87;;;7.20;;
3847;SDS011;1939;48.720;9.166;2023-12-07T03:41:50;11.63;;;6.97;;
3847;SDS011;1939;48.720;9.166;2023-12-07T03:44:15;11.87;;;6.70;;
3847;SDS011;1939;48.720;9.166;2023-12-07T03:46:41;12.40;;;7.40;;
3847;SDS011;1939;48.720;9.166;2023-12-07T03:49:06;13.53;;;7.17;;
3847;SDS011;1939;48.720;9.166;2023-12-07T03:51:31;13.30;;;7.70;;
3847;SDS011;1939;48.720;9.166;2023-12-07T03:53:56;17.80;;;7.90;;
3847;SDS011;1939;48.720;9.166;2023-12-07T03:56:25;13.80;;;8.10;;
3847;SDS011;1939;48.720;9.166;2023-12-07T03:58:50;15.53;;;7.83;;
3847;SDS011;1939;48.720;9.166;2023-12-07T04:01:16;17.80;;;8.10;;
3847;SDS011;1939;48.720;9.166;2023-12-07T04:03:41;17.80;;;9.00;;
3847;SDS011;1939;48.720;9.166;2023-12-07T04:06:06;16.40;;;7.87;;
3847;SDS011;1939;48.720;9.166;2023-12-07T04:08:32;19.97;;;8.83;;
3847;SDS011;1939;48.720;9.166;2023-12-07T04:10:58;15.30;;;8.33;;
3847;SDS011;1939;48.720;9.166;2023-12-07T04:13:23;14.83;;;8.93;;
3847;SDS011;1939;48.720;9.166;2023-12-07T04:15:48;12.47;;;7.50;;
3847;SDS011;1939;48.720;9.166;2023-12-07T04:18:13;18.33;;;8.33;;
3847;SDS011;1939;48.720;9.166;2023-12-07T04:20:39;16.13;;;7.50;;
3847;SDS011;1939;48.720;9.166;2023-12-07T04:23:04;12.40;;;7.80;;
3847;SDS011;1939;48.720;9.166;2023-12-07T04:25:29;20.43;;;9.00;;
3847;SDS011;1939;48.720;9.166;2023-12-07T04:27:54;18.57;;;9.43;;
3847;SDS011;1939;48.720;9.166;2023-12-07T04:30:20;14.30;;;9.20;;
3847;SDS011;1939;48.720;9.166;2023-12-07T04:32:45;19.00;;;9.43;;
3847;SDS011;1939;48.720;9.166;2023-12-07T04:35:10;16.43;;;8.67;;
3847;SDS011;1939;48.720;9.166;2023-12-07T04:37:35;22.40;;;9.50;;
3847;SDS011;1939;48.720;9.166;2023-12-07T04:40:00;14.83;;;8.03;;
3847;SDS011;1939;48.720;9.166;2023-12-07T04:42:26;29.23;;;13.37;;
3847;SDS011;1939;48.720;9.166;2023-12-07T04:44:51;22.70;;;9.80;;
3847;SDS011;1939;48.720;9.166;2023-12-07T04:47:16;23.33;;;12.00;;
3847;SDS011;1939;48.720;9.166;2023-12-07T04:49:42;21.40;;;10.20;;
3847;SDS011;1939;48.720;9.166;2023-12-07T04:52:07;19.77;;;9.87;;
3847;SDS011;1939;48.720;9.166;2023-12-07T04:54:32;15.17;;;9.77;;
3847;SDS011;1939;48.720;9.166;2023-12-07T04:56:57;20.03;;;10.70;;
3847;SDS011;1939;48.720;9.166;2023-12-07T04:59:23;74.90;;;30.90;;
3847;SDS011;1939;48.720;9.166;2023-12-07T05:01:48;22.23;;;10.90;;
3847;SDS011;1939;48.720;9.166;2023-12-07T05:04:13;22.43;;;9.50;;
3847;SDS011;1939;48.720;9.166;2023-12-07T05:06:40;20.40;;;10.90;;
3847;SDS011;1939;48.720;9.166;2023-12-07T05:09:05;19.27;;;10.40;;
3847;SDS011;1939;48.720;9.166;2023-12-07T05:11:34;17.90;;;8.80;;
3847;SDS011;1939;48.720;9.166;2023-12-07T05:13:59;15.83;;;9.27;;
3847;SDS011;1939;48.720;9.166;2023-12-07T05:16:24;27.93;;;11.10;;
3847;SDS011;1939;48.720;9.166;2023-12-07T05:18:50;19.67;;;9.80;;
3847;SDS011;1939;48.720;9.166;2023-12-07T05:21:15;19.97;;;8.63;;
3847;SDS011;1939;48.720;9.166;2023-12-07T05:23:40;27.30;;;8.90;;
3847;SDS011;1939;48.720;9.166;2023-12-07T05:26:05;20.87;;;9.10;;
3847;SDS011;1939;48.720;9.166;2023-12-07T05:28:33;19.47;;;9.90;;
3847;SDS011;1939;48.720;9.166;2023-12-07T05:30:58;18.53;;;8.50;;
3847;SDS011;1939;48.720;9.166;2023-12-07T05:33:23;15.70;;;8.80;;
3847;SDS011;1939;48.720;9.166;2023-12-07T05:35:48;13.30;;;8.63;;
3847;SDS011;1939;48.720;9.166;2023-12-07T05:38:14;17.80;;;9.27;;
3847;SDS011;1939;48.720;9.166;2023-12-07T05:40:39;18.40;;;8.27;;
3847;SDS011;1939;48.720;9.166;2023-12-07T05:43:04;22.73;;;10.00;;
3847;SDS011;1939;48.720;9.166;2023-12-07T05:45:30;17.93;;;9.27;;
3847;SDS011;1939;48.720;9.166;2023-12-07T05:47:58;18.00;;;9.70;;
3847;SDS011;1939;48.720;9.166;2023-12-07T05:50:23;21.57;;;10.33;;
3847;SDS011;1939;48.720;9.166;2023-12-07T05:52:48;21.00;;;10.27;;
3847;SDS011;1939;48.720;9.166;2023-12-07T05:55:14;19.67;;;10.77;;
3847;SDS011;1939;48.720;9.166;2023-12-07T05:57:39;17.40;;;8.37;;
3847;SDS011;1939;48.720;9.166;2023-12-07T06:00:05;17.57;;;9.40;;
3847;SDS011;1939;48.720;9.166;2023-12-07T06:02:34;12.87;;;8.40;;
3847;SDS011;1939;48.720;9.166;2023-12-07T06:04:59;17.40;;;8.27;;
3847;SDS011;1939;48.720;9.166;2023-12-07T06:07:24;20.40;;;10.00;;
3847;SDS011;1939;48.720;9.166;2023-12-07T06:09:50;18.40;;;9.67;;
3847;SDS011;1939;48.720;9.166;2023-12-07T06:12:15;16.70;;;8.70;;
3847;SDS011;1939;48.720;9.166;2023-12-07T06:14:40;21.30;;;9.40;;
3847;SDS011;1939;48.720;9.166;2023-12-07T06:17:05;16.20;;;8.70;;
3847;SDS011;1939;48.720;9.166;2023-12-07T06:19:33;20.40;;;10.03;;
3847;SDS011;1939;48.720;9.166;2023-12-07T06:21:58;20.13;;;10.50;;
3847;SDS011;1939;48.720;9.166;2023-12-07T06:24:23;16.17;;;8.97;;
3847;SDS011;1939;48.720;9.166;2023-12-07T06:26:50;17.30;;;9.20;;
3847;SDS011;1939;48.720;9.166;2023-12-07T06:29:15;18.73;;;9.23;;
3847;SDS011;1939;48.720;9.166;2023-12-07T06:31:43;18.67;;;9.47;;
3847;SDS011;1939;48.720;9.166;2023-12-07T06:34:08;26.43;;;9.07;;
3847;SDS011;1939;48.720;9.166;2023-12-07T06:36:34;17.87;;;9.60;;
3847;SDS011;1939;48.720;9.166;2023-12-07T06:39:01;22.93;;;10.00;;
3847;SDS011;1939;48.720;9.166;2023-12-07T06:41:26;16.97;;;9.53;;
3847;SDS011;1939;48.720;9.166;2023-12-07T06:43:51;27.77;;;9.60;;
3847;SDS011;1939;48.720;9.166;2023-12-07T06:46:17;21.50;;;10.27;;
3847;SDS011;1939;48.720;9.166;2023-12-07T06:48:42;18.07;;;9.73;;
3847;SDS011;1939;48.720;9.166;2023-12-07T06:51:07;16.77;;;9.70;;
3847;SDS011;1939;48.720;9.166;2023-12-07T06:53:32;17.30;;;9.13;;
3847;SDS011;1939;48.720;9.166;2023-12-07T06:55:58;19.03;;;9.37;;
3847;SDS011;1939;48.720;9.166;2023-12-07T06:58:23;20.73;;;10.27;;
3847;SDS011;1939;48.720;9.166;2023-12-07T07:00:48;15.80;;;8.87;;
3847;SDS011;1939;48.720;9.166;2023-12-07T07:03:14;18.80;;;9.03;;
3847;SDS011;1939;48.720;9.166;2023-12-07T07:05:39;18.80;;;9.13;;
3847;SDS011;1939;48.720;9.166;2023-12-07T07:08:05;18.53;;;9.33;;
3847;SDS011;1939;48.720;9.166;2023-12-07T07:10:32;13.10;;;7.73;;
3847;SDS011;1939;48.720;9.166;2023-12-07T07:13:01;20.40;;;9.27;;
3847;SDS011;1939;48.720;9.166;2023-12-07T07:15:29;20.97;;;10.40;;
3847;SDS011;1939;48.720;9.166;2023-12-07T07:17:54;13.20;;;8.03;;
3847;SDS011;1939;48.720;9.166;2023-12-07T07:20:19;16.73;;;8.63;;
3847;SDS011;1939;48.720;9.166;2023-12-07T07:22:45;19.43;;;9.50;;
3847;SDS011;1939;48.720;9.166;2023-12-07T07:25:11;16.90;;;8.83;;
3847;SDS011;1939;48.720;9.166;2023-12-07T07:27:36;16.50;;;8.07;;
3847;SDS011;1939;48.720;9.166;2023-12-07T07:30:01;17.67;;;9.90;;
3847;SDS011;1939;48.720;9.166;2023-12-07T07:32:29;16.33;;;8.70;;
3847;SDS011;1939;48.720;9.166;2023-12-07T07:34:54;18.20;;;8.53;;
3847;SDS011;1939;48.720;9.166;2023-12-07T07:37:19;21.03;;;10.40;;
3847;SDS011;1939;48.720;9.166;2023-12-07T07:39:45;24.87;;;11.70;;
3847;SDS011;1939;48.720;9.166;2023-12-07T07:42:10;18.40;;;9.77;;
3847;SDS011;1939;48.720;9.166;2023-12-07T07:44:35;20.67;;;8.73;;
3847;SDS011;1939;48.720;9.166;2023-12-07T07:47:01;14.50;;;9.90;;
3847;SDS011;1939;48.720;9.166;2023-12-07T07:49:26;10.10;;;7.20;;
3847;SDS011;1939;48.720;9.166;2023-12-07T07:51:51;9.07;;;5.40;;
3847;SDS011;1939;48.720;9.166;2023-12-07T07:54:17;10.13;;;6.57;;
3847;SDS011;1939;48.720;9.166;2023-12-07T07:56:42;19.93;;;7.17;;
3847;SDS011;1939;48.720;9.166;2023-12-07T07:59:08;9.60;;;6.90;;
3847;SDS011;1939;48.720;9.166;2023-12-07T08:01:33;10.97;;;6.30;;
3847;SDS011;1939;48.720;9.166;2023-12-07T08:03:58;9.30;;;6.37;;
3847;SDS011;1939;48.720;9.166;2023-12-07T08:06:25;13.97;;;8.33;;
3847;SDS011;1939;48.720;9.166;2023-12-07T08:08:56;11.10;;;7.17;;
3847;SDS011;1939;48.720;9.166;2023-12-07T08:11:21;13.47;;;7.27;;
3847;SDS011;1939;48.720;9.166;2023-12-07T08:13:46;10.83;;;7.53;;
3847;SDS011;1939;48.720;9.166;2023-12-07T08:16:11;13.20;;;7.37;;
3847;SDS011;1939;48.720;9.166;2023-12-07T08:18:37;13.13;;;7.30;;
3847;SDS011;1939;48.720;9.166;2023-12-07T08:21:02;13.40;;;7.13;;
3847;SDS011;1939;48.720;9.166;2023-12-07T08:23:28;11.83;;;7.20;;
3847;SDS011;1939;48.720;9.166;2023-12-07T08:25:53;11.67;;;7.10;;
3847;SDS011;1939;48.720;9.166;2023-12-07T08:28:22;12.13;;;7.53;;
3847;SDS011;1939;48.720;9.166;2023-12-07T08:30:50;11.77;;;7.30;;
3847;SDS011;1939;48.720;9.166;2023-12-07T08:33:15;13.63;;;7.37;;
3847;SDS011;1939;48.720;9.166;2023-12-07T08:35:40;18.07;;;7.93;;
3847;SDS011;1939;48.720;9.166;2023-12-07T08:38:06;13.60;;;7.67;;
3847;SDS011;1939;48.720;9.166;2023-12-07T08:40:31;16.80;;;7.60;;
3847;SDS011;1939;48.720;9.166;2023-12-07T08:42:57;14.60;;;8.20;;
3847;SDS011;1939;48.720;9.166;2023-12-07T08:45:22;23.03;;;7.90;;
3847;SDS011;1939;48.720;9.166;2023-12-07T08:47:48;12.07;;;7.67;;
3847;SDS011;1939;48.720;9.166;2023-12-07T08:50:14;10.60;;;6.70;;
3847;SDS011;1939;48.720;9.166;2023-12-07T08:52:39;12.93;;;7.00;;
3847;SDS011;1939;48.720;9.166;2023-12-07T08:55:05;12.97;;;8.67;;
3847;SDS011;1939;48.720;9.166;2023-12-07T08:57:30;11.87;;;7.10;;
3847;SDS011;1939;48.720;9.166;2023-12-07T08:59:55;12.97;;;7.00;;
3847;SDS011;1939;48.720;9.166;2023-12-07T09:02:20;17.27;;;8.67;;
3847;SDS011;1939;48.720;9.166;2023-12-07T09:04:46;10.87;;;7.70;;
3847;SDS011;1939;48.720;9.166;2023-12-07T09:07:11;11.77;;;7.20;;
3847;SDS011;1939;48.720;9.166;2023-12-07T09:09:40;15.60;;;7.60;;
3847;SDS011;1939;48.720;9.166;2023-12-07T09:12:11;11.53;;;7.40;;
3847;SDS011;1939;48.720;9.166;2023-12-07T09:14:37;11.87;;;7.07;;
3847;SDS011;1939;48.720;9.166;2023-12-07T09:17:02;11.47;;;8.27;;
3847;SDS011;1939;48.720;9.166;2023-12-07T09:19:27;11.03;;;6.90;;
3847;SDS011;1939;48.720;9.166;2023-12-07T09:21:52;11.50;;;7.43;;
3847;SDS011;1939;48.720;9.166;2023-12-07T09:24:18;17.37;;;7.30;;
3847;SDS011;1939;48.720;9.166;2023-12-07T09:26:43;11.30;;;7.33;;
3847;SDS011;1939;48.720;9.166;2023-12-07T09:29:08;15.40;;;7.63;;
3847;SDS011;1939;48.720;9.166;2023-12-07T09:31:33;14.27;;;7.30;;
3847;SDS011;1939;48.720;9.166;2023-12-07T09:33:59;14.33;;;7.40;;
3847;SDS011;1939;48.720;9.166;2023-12-07T09:36:24;17.50;;;8.03;;
3847;SDS011;1939;48.720;9.166;2023-12-07T09:38:51;12.67;;;6.57;;
3847;SDS011;1939;48.720;9.166;2023-12-07T09:41:16;8.50;;;6.80;;
3847;SDS011;1939;48.720;9.166;2023-12-07T09:43:42;7.23;;;5.77;;
3847;SDS011;1939;48.720;9.166;2023-12-07T09:46:07;10.33;;;6.40;;
3847;SDS011;1939;48.720;9.166;2023-12-07T09:48:33;10.33;;;7.90;;
3847;SDS011;1939;48.720;9.166;2023-12-07T09:50:59;10.63;;;6.90;;
3847;SDS011;1939;48.720;9.166;2023-12-07T09:53:25;12.77;;;7.57;;
3847;SDS011;1939;48.720;9.166;2023-12-07T09:55:51;15.10;;;7.97;;
3847;SDS011;1939;48.720;9.166;2023-12-07T09:58:16;14.13;;;7.97;;
3847;SDS011;1939;48.720;9.166;2023-12-07T10:00:41;11.50;;;8.47;;
3847;SDS011;1939;48.720;9.166;2023-12-07T10:03:07;17.50;;;8.50;;
3847;SDS011;1939;48.720;9.166;2023-12-07T10:05:33;16.73;;;9.23;;
3847;SDS011;1939;48.720;9.166;2023-12-07T10:07:58;17.10;;;8.97;;
3847;SDS011;1939;48.720;9.166;2023-12-07T10:10:23;16.00;;;9.23;;
3847;SDS011;1939;48.720;9.166;2023-12-07T10:12:52;14.43;;;9.90;;
3847;SDS011;1939;48.720;9.166;2023-12-07T10:15:18;13.03;;;8.70;;
3847;SDS011;1939;48.720;9.166;2023-12-07T10:20:13;20.47;;;8.70;;
3847;SDS011;1939;48.720;9.166;2023-12-07T10:22:39;19.00;;;8.97;;
3847;SDS011;1939;48.720;9.166;2023-12-07T10:25:04;9.07;;;6.90;;
3847;SDS011;1939;48.720;9.166;2023-12-07T10:27:29;12.20;;;8.23;;
3847;SDS011;1939;48.720;9.166;2023-12-07T10:29:55;12.07;;;7.43;;
3847;SDS011;1939;48.720;9.166;2023-12-07T10:32:23;11.60;;;6.80;;
3847;SDS011;1939;48.720;9.166;2023-12-07T10:34:48;11.93;;;6.60;;
3847;SDS011;1939;48.720;9.166;2023-12-07T10:37:14;10.00;;;5.70;;
3847;SDS011;1939;48.720;9.166;2023-12-07T10:39:39;9.27;;;5.70;;
3847;SDS011;1939;48.720;9.166;2023-12-07T10:42:04;8.20;;;5.00;;
3847;SDS011;1939;48.720;9.166;2023-12-07T10:44:34;10.20;;;6.20;;
3847;SDS011;1939;48.720;9.166;2023-12-07T10:47:00;11.03;;;5.30;;
3847;SDS011;1939;48.720;9.166;2023-12-07T10:49:27;11.40;;;5.97;;
3847;SDS011;1939;48.720;9.166;2023-12-07T10:52:00;9.50;;;5.37;;
3847;SDS011;1939;48.720;9.166;2023-12-07T10:54:27;9.50;;;5.07;;
3847;SDS011;1939;48.720;9.166;2023-12-07T10:56:55;7.80;;;4.83;;
3847;SDS011;1939;48.720;9.166;2023-12-07T10:59:20;7.87;;;4.90;;
3847;SDS011;1939;48.720;9.166;2023-12-07T11:01:46;9.90;;;5.37;;
3847;SDS011;1939;48.720;9.166;2023-12-07T11:04:12;5.13;;;3.83;;
3847;SDS011;1939;48.720;9.166;2023-12-07T11:06:38;11.30;;;4.63;;
3847;SDS011;1939;48.720;9.166;2023-12-07T11:09:06;6.67;;;4.70;;
3847;SDS011;1939;48.720;9.166;2023-12-07T11:12:17;6.17;;;3.97;;
3847;SDS011;1939;48.720;9.166;2023-12-07T11:14:20;7.03;;;4.17;;
3847;SDS011;1939;48.720;9.166;2023-12-07T11:16:46;6.47;;;4.20;;
3847;SDS011;1939;48.720;9.166;2023-12-07T11:19:27;7.47;;;4.77;;
3847;SDS011;1939;48.720;9.166;2023-12-07T11:22:08;6.83;;;5.20;;
3847;SDS011;1939;48.720;9.166;2023-12-07T11:24:34;7.73;;;5.40;;
3847;SDS011;1939;48.720;9.166;2023-12-07T11:27:01;8.40;;;4.27;;
3847;SDS011;1939;48.720;9.166;2023-12-07T11:29:29;8.03;;;4.60;;
3847;SDS011;1939;48.720;9.166;2023-12-07T11:31:56;4.90;;;3.73;;
3847;SDS011;1939;48.720;9.166;2023-12-07T11:34:41;7.20;;;4.70;;
3847;SDS011;1939;48.720;9.166;2023-12-07T11:37:06;7.40;;;4.80;;
3847;SDS011;1939;48.720;9.166;2023-12-07T11:39:35;8.50;;;5.03;;
3847;SDS011;1939;48.720;9.166;2023-12-07T11:42:10;6.47;;;4.50;;
3847;SDS011;1939;48.720;9.166;2023-12-07T11:44:36;5.70;;;3.77;;
3847;SDS011;1939;48.720;9.166;2023-12-07T11:47:02;6.10;;;4.40;;
3847;SDS011;1939;48.720;9.166;2023-12-07T11:49:27;5.13;;;3.60;;
3847;SDS011;1939;48.720;9.166;2023-12-07T11:51:53;6.20;;;4.67;;
3847;SDS011;1939;48.720;9.166;2023-12-07T11:54:18;8.07;;;4.13;;
3847;SDS011;1939;48.720;9.166;2023-12-07T11:56:43;7.73;;;3.97;;
3847;SDS011;1939;48.720;9.166;2023-12-07T11:59:09;10.00;;;4.20;;
3847;SDS011;1939;48.720;9.166;2023-12-07T12:01:34;7.10;;;4.23;;
3847;SDS011;1939;48.720;9.166;2023-12-07T12:03:59;5.10;;;3.27;;
3847;SDS011;1939;48.720;9.166;2023-12-07T12:06:25;10.10;;;4.50;;
3847;SDS011;1939;48.720;9.166;2023-12-07T12:08:51;10.87;;;4.63;;
3847;SDS011;1939;48.720;9.166;2023-12-07T12:11:17;6.60;;;4.30;;
3847;SDS011;1939;48.720;9.166;2023-12-07T12:13:43;6.00;;;3.93;;
3847;SDS011;1939;48.720;9.166;2023-12-07T12:16:10;8.83;;;4.50;;
3847;SDS011;1939;48.720;9.166;2023-12-07T12:18:36;5.37;;;3.90;;
3847;SDS011;1939;48.720;9.166;2023-12-07T12:21:02;7.20;;;3.53;;
3847;SDS011;1939;48.720;9.166;2023-12-07T12:23:27;6.30;;;4.13;;
3847;SDS011;1939;48.720;9.166;2023-12-07T12:25:53;16.17;;;4.37;;
3847;SDS011;1939;48.720;9.166;2023-12-07T12:28:19;7.33;;;4.00;;
3847;SDS011;1939;48.720;9.166;2023-12-07T12:30:47;7.80;;;4.27;;
3847;SDS011;1939;48.720;9.166;2023-12-07T12:33:12;6.60;;;5.17;;
3847;SDS011;1939;48.720;9.166;2023-12-07T12:35:37;7.30;;;4.50;;
3847;SDS011;1939;48.720;9.166;2023-12-07T12:38:03;8.10;;;4.17;;
3847;SDS011;1939;48.720;9.166;2023-12-07T12:40:33;7.63;;;4.50;;
3847;SDS011;1939;48.720;9.166;2023-12-07T12:42:59;7.57;;;4.33;;
3847;SDS011;1939;48.720;9.166;2023-12-07T12:45:25;8.43;;;5.53;;
3847;SDS011;1939;48.720;9.166;2023-12-07T12:47:51;7.20;;;4.03;;
3847;SDS011;1939;48.720;9.166;2023-12-07T12:50:33;9.17;;;5.40;;
3847;SDS011;1939;48.720;9.166;2023-12-07T12:53:00;8.17;;;4.80;;
3847;SDS011;1939;48.720;9.166;2023-12-07T12:55:25;10.90;;;4.87;;
3847;SDS011;1939;48.720;9.166;2023-12-07T12:57:51;7.47;;;4.70;;
3847;SDS011;1939;48.720;9.166;2023-12-07T13:00:16;11.13;;;5.67;;
3847;SDS011;1939;48.720;9.166;2023-12-07T13:02:41;11.23;;;6.07;;
3847;SDS011;1939;48.720;9.166;2023-12-07T13:05:06;9.27;;;4.87;;
3847;SDS011;1939;48.720;9.166;2023-12-07T13:07:32;10.87;;;5.67;;
3847;SDS011;1939;48.720;9.166;2023-12-07T13:09:57;6.80;;;4.80;;
3847;SDS011;1939;48.720;9.166;2023-12-07T13:12:22;11.10;;;5.47;;
3847;SDS011;1939;48.720;9.166;2023-12-07T13:14:48;11.50;;;6.13;;
3847;SDS011;1939;48.720;9.166;2023-12-07T13:17:14;9.13;;;5.70;;
3847;SDS011;1939;48.720;9.166;2023-12-07T13:19:39;7.73;;;5.63;;
3847;SDS011;1939;48.720;9.166;2023-12-07T13:22:04;5.60;;;4.73;;
3847;SDS011;1939;48.720;9.166;2023-12-07T13:24:29;7.37;;;4.27;;
3847;SDS011;1939;48.720;9.166;2023-12-07T13:26:55;9.30;;;5.17;;
3847;SDS011;1939;48.720;9.166;2023-12-07T13:29:23;10.83;;;4.90;;
3847;SDS011;1939;48.720;9.166;2023-12-07T13:31:48;8.70;;;4.83;;
3847;SDS011;1939;48.720;9.166;2023-12-07T13:34:14;6.10;;;4.40;;
3847;SDS011;1939;48.720;9.166;2023-12-07T13:36:39;5.60;;;4.50;;
3847;SDS011;1939;48.720;9.166;2023-12-07T13:39:05;5.00;;;3.90;;
3847;SDS011;1939;48.720;9.166;2023-12-07T13:41:30;7.67;;;4.03;;
3847;SDS011;1939;48.720;9.166;2023-12-07T13:43:55;11.73;;;4.97;;
3847;SDS011;1939;48.720;9.166;2023-12-07T13:46:20;7.53;;;4.30;;
3847;SDS011;1939;48.720;9.166;2023-12-07T13:48:46;5.80;;;4.17;;
3847;SDS011;1939;48.720;9.166;2023-12-07T13:51:15;4.70;;;3.00;;
3847;SDS011;1939;48.720;9.166;2023-12-07T13:53:40;5.70;;;3.00;;
3847;SDS011;1939;48.720;9.166;2023-12-07T13:56:05;4.13;;;3.60;;
3847;SDS011;1939;48.720;9.166;2023-12-07T13:58:32;3.37;;;2.70;;
3847;SDS011;1939;48.720;9.166;2023-12-07T14:00:58;6.10;;;3.80;;
3847;SDS011;1939;48.720;9.166;2023-12-07T14:03:23;4.73;;;2.63;;
3847;SDS011;1939;48.720;9.166;2023-12-07T14:05:48;11.33;;;2.47;;
3847;SDS011;1939;48.720;9.166;2023-12-07T14:08:14;4.00;;;2.30;;
3847;SDS011;1939;48.720;9.166;2023-12-07T14:10:39;3.07;;;2.10;;
3847;SDS011;1939;48.720;9.166;2023-12-07T14:13:04;4.43;;;2.07;;
3847;SDS011;1939;48.720;9.166;2023-12-07T14:15:29;3.50;;;1.60;;
3847;SDS011;1939;48.720;9.166;2023-12-07T14:17:57;3.67;;;1.80;;
3847;SDS011;1939;48.720;9.166;2023-12-07T14:20:24;2.03;;;1.87;;
3847;SDS011;1939;48.720;9.166;2023-12-07T14:22:52;1.50;;;1.40;;
3847;SDS011;1939;48.720;9.166;2023-12-07T14:25:18;2.37;;;1.60;;
3847;SDS011;1939;48.720;9.166;2023-12-07T14:27:43;2.60;;;1.53;;
3847;SDS011;1939;48.720;9.166;2023-12-07T14:30:08;1.73;;;1.30;;
3847;SDS011;1939;48.720;9.166;2023-12-07T14:32:35;2.60;;;1.73;;
3847;SDS011;1939;48.720;9.166;2023-12-07T14:35:00;4.83;;;2.00;;
3847;SDS011;1939;48.720;9.166;2023-12-07T14:37:25;2.60;;;1.33;;
3847;SDS011;1939;48.720;9.166;2023-12-07T14:39:51;3.50;;;2.07;;
3847;SDS011;1939;48.720;9.166;2023-12-07T14:42:16;2.70;;;1.80;;
3847;SDS011;1939;48.720;9.166;2023-12-07T14:44:41;2.60;;;1.60;;
3847;SDS011;1939;48.720;9.166;2023-12-07T14:47:06;3.53;;;2.03;;
3847;SDS011;1939;48.720;9.166;2023-12-07T14:49:32;1.77;;;1.60;;
3847;SDS011;1939;48.720;9.166;2023-12-07T14:51:57;11.53;;;4.53;;
3847;SDS011;1939;48.720;9.166;2023-12-07T14:54:24;3.23;;;2.23;;
3847;SDS011;1939;48.720;9.166;2023-12-07T14:56:49;2.73;;;2.10;;
3847;SDS011;1939;48.720;9.166;2023-12-07T14:59:14;9.30;;;2.30;;
3847;SDS011;1939;48.720;9.166;2023-12-07T15:01:39;6.33;;;2.43;;